sensor_id;sensor_type;location;lat;lon;timestamp;pressure;altitude;pressure_sealevel;temperature;humidity
23473;BME280;11909;52.516;13.564;2023-02-04T00:00:31;101542.75;;;3.01;95.21
23473;BME280;11909;52.516;13.564;2023-02-04T00:03:02;101556.28;;;3.08;93.24
23473;BME280;11909;52.516;13.564;2023-02-04T00:05:30;101566.72;;;3.05;93.59
23473;BME280;11909;52.516;13.564;2023-02-04T00:07:58;101580.91;;;3.00;93.07
23473;BME280;11909;52.516;13.564;2023-02-04T00:10:26;101591.94;;;2.98;92.99
23473;BME280;11909;52.516;13.564;2023-02-04T00:12:55;101600.94;;;3.06;93.00
23473;BME280;11909;52.516;13.564;2023-02-04T00:15:23;101604.47;;;3.13;92.02
23473;BME280;11909;52.516;13.564;2023-02-04T00:17:50;101616.78;;;3.02;92.25
23473;BME280;11909;52.516;13.564;2023-02-04T00:20:18;101621.38;;;2.88;92.63
23473;BME280;11909;52.516;13.564;2023-02-04T00:22:46;101617.81;;;2.94;92.76
23473;BME280;11909;52.516;13.564;2023-02-04T00:25:14;101632.19;;;2.81;93.41
23473;BME280;11909;52.516;13.564;2023-02-04T00:27:42;101634.91;;;2.75;93.69
23473;BME280;11909;52.516;13.564;2023-02-04T00:30:12;101640.53;;;2.66;95.12
23473;BME280;11909;52.516;13.564;2023-02-04T00:32:41;101643.66;;;2.83;93.76
23473;BME280;11909;52.516;13.564;2023-02-04T00:35:08;101671.88;;;2.96;92.04
23473;BME280;11909;52.516;13.564;2023-02-04T00:37:36;101671.41;;;2.85;92.43
23473;BME280;11909;52.516;13.564;2023-02-04T00:40:04;101690.81;;;2.89;90.56
23473;BME280;11909;52.516;13.564;2023-02-04T00:42:32;101697.31;;;2.95;90.55
23473;BME280;11909;52.516;13.564;2023-02-04T00:45:00;101707.53;;;2.93;90.20
23473;BME280;11909;52.516;13.564;2023-02-04T00:47:29;101722.13;;;2.92;89.71
23473;BME280;11909;52.516;13.564;2023-02-04T00:49:56;101739.00;;;2.87;89.50
23473;BME280;11909;52.516;13.564;2023-02-04T00:52:24;101769.47;;;2.96;87.67
23473;BME280;11909;52.516;13.564;2023-02-04T00:54:52;101773.66;;;2.92;86.19
23473;BME280;11909;52.516;13.564;2023-02-04T00:57:20;101787.78;;;2.80;85.97
23473;BME280;11909;52.516;13.564;2023-02-04T00:59:47;101800.06;;;2.76;84.76
23473;BME280;11909;52.516;13.564;2023-02-04T01:02:15;101812.50;;;2.64;85.69
23473;BME280;11909;52.516;13.564;2023-02-04T01:04:45;101820.19;;;2.53;84.88
23473;BME280;11909;52.516;13.564;2023-02-04T01:07:13;101826.81;;;2.44;85.71
23473;BME280;11909;52.516;13.564;2023-02-04T01:09:40;101835.75;;;2.44;86.02
23473;BME280;11909;52.516;13.564;2023-02-04T01:12:08;101840.53;;;2.42;86.36
23473;BME280;11909;52.516;13.564;2023-02-04T01:14:36;101847.47;;;2.52;86.07
23473;BME280;11909;52.516;13.564;2023-02-04T01:17:04;101851.84;;;2.53;85.09
23473;BME280;11909;52.516;13.564;2023-02-04T01:19:32;101865.03;;;2.56;85.34
23473;BME280;11909;52.516;13.564;2023-02-04T01:22:01;101876.47;;;2.51;84.19
23473;BME280;11909;52.516;13.564;2023-02-04T01:24:28;101886.78;;;2.41;84.42
23473;BME280;11909;52.516;13.564;2023-02-04T01:26:56;101897.16;;;2.31;84.29
23473;BME280;11909;52.516;13.564;2023-02-04T01:29:24;101909.13;;;2.43;84.04
23473;BME280;11909;52.516;13.564;2023-02-04T01:31:51;101915.84;;;2.47;83.92
23473;BME280;11909;52.516;13.564;2023-02-04T01:34:19;101929.25;;;2.34;83.40
23473;BME280;11909;52.516;13.564;2023-02-04T01:36:47;101936.81;;;2.38;84.41
23473;BME280;11909;52.516;13.564;2023-02-04T01:39:16;101943.91;;;2.39;83.65
23473;BME280;11909;52.516;13.564;2023-02-04T01:41:44;101948.22;;;2.34;84.94
23473;BME280;11909;52.516;13.564;2023-02-04T01:44:11;101962.75;;;2.26;84.64
23473;BME280;11909;52.516;13.564;2023-02-04T01:46:39;101955.72;;;2.32;84.85
23473;BME280;11909;52.516;13.564;2023-02-04T01:49:09;101965.44;;;2.26;85.33
23473;BME280;11909;52.516;13.564;2023-02-04T01:51:37;101968.81;;;2.28;84.78
23473;BME280;11909;52.516;13.564;2023-02-04T01:54:08;101984.47;;;2.11;84.81
23473;BME280;11909;52.516;13.564;2023-02-04T01:56:38;101997.47;;;2.15;84.45
23473;BME280;11909;52.516;13.564;2023-02-04T01:59:10;102003.75;;;2.23;84.49
23473;BME280;11909;52.516;13.564;2023-02-04T02:01:40;102003.25;;;2.12;84.05
23473;BME280;11909;52.516;13.564;2023-02-04T02:04:08;102003.91;;;2.14;84.54
23473;BME280;11909;52.516;13.564;2023-02-04T02:06:38;102010.03;;;2.23;84.30
23473;BME280;11909;52.516;13.564;2023-02-04T02:09:08;102028.28;;;2.14;83.97
23473;BME280;11909;52.516;13.564;2023-02-04T02:11:37;102031.00;;;2.14;84.62
23473;BME280;11909;52.516;13.564;2023-02-04T02:14:05;102039.28;;;2.13;84.78
23473;BME280;11909;52.516;13.564;2023-02-04T02:16:33;102048.66;;;2.10;85.33
23473;BME280;11909;52.516;13.564;2023-02-04T02:19:01;102064.78;;;2.19;84.92
23473;BME280;11909;52.516;13.564;2023-02-04T02:21:32;102061.16;;;2.11;86.01
23473;BME280;11909;52.516;13.564;2023-02-04T02:24:23;102070.97;;;2.12;86.85
23473;BME280;11909;52.516;13.564;2023-02-04T02:26:51;102072.56;;;2.07;87.39
23473;BME280;11909;52.516;13.564;2023-02-04T02:29:19;102070.50;;;2.09;87.26
23473;BME280;11909;52.516;13.564;2023-02-04T02:31:48;102083.66;;;2.12;87.59
23473;BME280;11909;52.516;13.564;2023-02-04T02:34:16;102090.38;;;2.16;87.67
23473;BME280;11909;52.516;13.564;2023-02-04T02:36:44;102101.78;;;2.11;87.70
23473;BME280;11909;52.516;13.564;2023-02-04T02:39:13;102110.38;;;2.00;88.41
23473;BME280;11909;52.516;13.564;2023-02-04T02:41:41;102114.69;;;2.09;87.87
23473;BME280;11909;52.516;13.564;2023-02-04T02:44:10;102118.22;;;2.10;88.08
23473;BME280;11909;52.516;13.564;2023-02-04T02:46:39;102123.91;;;2.15;88.11
23473;BME280;11909;52.516;13.564;2023-02-04T02:49:12;102142.84;;;2.15;87.95
23473;BME280;11909;52.516;13.564;2023-02-04T02:51:41;102140.91;;;2.09;88.15
23473;BME280;11909;52.516;13.564;2023-02-04T02:54:18;102144.47;;;1.94;89.07
23473;BME280;11909;52.516;13.564;2023-02-04T02:56:47;102141.31;;;1.91;88.85
23473;BME280;11909;52.516;13.564;2023-02-04T02:59:16;102153.44;;;1.95;89.42
23473;BME280;11909;52.516;13.564;2023-02-04T03:01:44;102152.41;;;1.96;89.39
23473;BME280;11909;52.516;13.564;2023-02-04T03:04:14;102164.09;;;1.96;89.47
23473;BME280;11909;52.516;13.564;2023-02-04T03:06:42;102155.69;;;1.91;89.66
23473;BME280;11909;52.516;13.564;2023-02-04T03:09:09;102161.31;;;1.90;89.71
23473;BME280;11909;52.516;13.564;2023-02-04T03:11:39;102162.59;;;1.79;90.72
23473;BME280;11909;52.516;13.564;2023-02-04T03:14:07;102173.34;;;1.72;90.52
23473;BME280;11909;52.516;13.564;2023-02-04T03:16:35;102184.25;;;1.64;90.94
23473;BME280;11909;52.516;13.564;2023-02-04T03:19:04;102179.94;;;1.69;91.34
23473;BME280;11909;52.516;13.564;2023-02-04T03:21:33;102201.31;;;1.79;91.02
23473;BME280;11909;52.516;13.564;2023-02-04T03:24:01;102208.16;;;1.75;91.29
23473;BME280;11909;52.516;13.564;2023-02-04T03:26:29;102219.72;;;1.69;91.41
23473;BME280;11909;52.516;13.564;2023-02-04T03:28:59;102212.72;;;1.75;91.43
23473;BME280;11909;52.516;13.564;2023-02-04T03:31:26;102224.19;;;1.62;91.20
23473;BME280;11909;52.516;13.564;2023-02-04T03:33:54;102230.06;;;1.65;91.76
23473;BME280;11909;52.516;13.564;2023-02-04T03:36:22;102235.97;;;1.69;91.61
23473;BME280;11909;52.516;13.564;2023-02-04T03:38:50;102249.56;;;1.61;91.63
23473;BME280;11909;52.516;13.564;2023-02-04T03:41:20;102252.25;;;1.61;91.68
23473;BME280;11909;52.516;13.564;2023-02-04T03:43:48;102262.63;;;1.57;91.55
23473;BME280;11909;52.516;13.564;2023-02-04T03:46:17;102269.59;;;1.51;92.04
23473;BME280;11909;52.516;13.564;2023-02-04T03:48:44;102270.25;;;1.53;92.33
23473;BME280;11909;52.516;13.564;2023-02-04T03:51:12;102286.97;;;1.34;92.82
23473;BME280;11909;52.516;13.564;2023-02-04T03:53:40;102292.22;;;1.35;93.08
23473;BME280;11909;52.516;13.564;2023-02-04T03:56:08;102303.41;;;1.32;93.10
23473;BME280;11909;52.516;13.564;2023-02-04T03:58:35;102311.66;;;1.39;93.20
23473;BME280;11909;52.516;13.564;2023-02-04T04:01:03;102322.09;;;1.42;93.49
23473;BME280;11909;52.516;13.564;2023-02-04T04:03:32;102324.97;;;1.40;93.20
23473;BME280;11909;52.516;13.564;2023-02-04T04:06:00;102348.31;;;1.41;93.21
23473;BME280;11909;52.516;13.564;2023-02-04T04:08:30;102344.44;;;1.36;92.97
23473;BME280;11909;52.516;13.564;2023-02-04T04:10:58;102354.44;;;1.35;93.26
23473;BME280;11909;52.516;13.564;2023-02-04T04:13:26;102351.88;;;1.42;93.18
23473;BME280;11909;52.516;13.564;2023-02-04T04:15:53;102357.16;;;1.35;93.43
23473;BME280;11909;52.516;13.564;2023-02-04T04:18:21;102366.59;;;1.39;93.76
23473;BME280;11909;52.516;13.564;2023-02-04T04:20:50;102370.31;;;1.38;93.94
23473;BME280;11909;52.516;13.564;2023-02-04T04:23:18;102373.81;;;1.47;93.89
23473;BME280;11909;52.516;13.564;2023-02-04T04:25:46;102378.00;;;1.50;93.82
23473;BME280;11909;52.516;13.564;2023-02-04T04:28:13;102383.59;;;1.48;93.81
23473;BME280;11909;52.516;13.564;2023-02-04T04:30:41;102392.63;;;1.40;93.54
23473;BME280;11909;52.516;13.564;2023-02-04T04:33:09;102395.16;;;1.42;93.81
23473;BME280;11909;52.516;13.564;2023-02-04T04:35:37;102398.69;;;1.42;93.85
23473;BME280;11909;52.516;13.564;2023-02-04T04:38:06;102405.25;;;1.48;93.97
23473;BME280;11909;52.516;13.564;2023-02-04T04:40:34;102412.88;;;1.45;93.93
23473;BME280;11909;52.516;13.564;2023-02-04T04:43:01;102424.25;;;1.40;93.92
23473;BME280;11909;52.516;13.564;2023-02-04T04:45:29;102429.81;;;1.38;93.73
23473;BME280;11909;52.516;13.564;2023-02-04T04:47:57;102430.72;;;1.31;94.41
23473;BME280;11909;52.516;13.564;2023-02-04T04:50:24;102430.72;;;1.31;94.71
23473;BME280;11909;52.516;13.564;2023-02-04T04:52:52;102435.41;;;1.37;94.89
23473;BME280;11909;52.516;13.564;2023-02-04T04:55:21;102440.19;;;1.26;94.95
23473;BME280;11909;52.516;13.564;2023-02-04T04:57:50;102449.84;;;1.21;95.08
23473;BME280;11909;52.516;13.564;2023-02-04T05:00:19;102458.28;;;1.26;95.65
23473;BME280;11909;52.516;13.564;2023-02-04T05:02:47;102461.88;;;1.18;95.52
23473;BME280;11909;52.516;13.564;2023-02-04T05:05:15;102470.31;;;1.23;95.87
23473;BME280;11909;52.516;13.564;2023-02-04T05:07:43;102483.34;;;1.20;95.31
23473;BME280;11909;52.516;13.564;2023-02-04T05:10:11;102491.28;;;1.13;96.01
23473;BME280;11909;52.516;13.564;2023-02-04T05:12:40;102480.81;;;1.18;96.14
23473;BME280;11909;52.516;13.564;2023-02-04T05:15:08;102487.91;;;1.19;95.93
23473;BME280;11909;52.516;13.564;2023-02-04T05:17:35;102500.94;;;1.16;96.20
23473;BME280;11909;52.516;13.564;2023-02-04T05:20:03;102505.47;;;1.15;96.04
23473;BME280;11909;52.516;13.564;2023-02-04T05:22:31;102514.97;;;1.11;96.24
23473;BME280;11909;52.516;13.564;2023-02-04T05:24:59;102509.56;;;1.11;96.22
23473;BME280;11909;52.516;13.564;2023-02-04T05:27:27;102514.66;;;1.06;96.27
23473;BME280;11909;52.516;13.564;2023-02-04T05:29:56;102522.06;;;1.12;96.73
23473;BME280;11909;52.516;13.564;2023-02-04T05:32:23;102524.09;;;1.10;96.36
23473;BME280;11909;52.516;13.564;2023-02-04T05:34:51;102533.06;;;1.10;96.53
23473;BME280;11909;52.516;13.564;2023-02-04T05:37:19;102537.25;;;1.13;96.74
23473;BME280;11909;52.516;13.564;2023-02-04T05:39:46;102544.72;;;1.11;96.92
23473;BME280;11909;52.516;13.564;2023-02-04T05:42:14;102548.44;;;1.10;96.97
23473;BME280;11909;52.516;13.564;2023-02-04T05:44:42;102558.22;;;1.11;96.93
23473;BME280;11909;52.516;13.564;2023-02-04T05:47:11;102560.44;;;1.16;96.61
23473;BME280;11909;52.516;13.564;2023-02-04T05:49:38;102566.34;;;1.11;96.57
23473;BME280;11909;52.516;13.564;2023-02-04T05:52:06;102574.47;;;1.11;96.99
23473;BME280;11909;52.516;13.564;2023-02-04T05:54:34;102582.75;;;1.09;96.46
23473;BME280;11909;52.516;13.564;2023-02-04T05:57:01;102584.44;;;1.02;96.86
23473;BME280;11909;52.516;13.564;2023-02-04T05:59:29;102589.34;;;1.07;96.54
23473;BME280;11909;52.516;13.564;2023-02-04T06:01:57;102590.03;;;1.00;96.50
23473;BME280;11909;52.516;13.564;2023-02-04T06:04:26;102598.66;;;1.04;96.75
23473;BME280;11909;52.516;13.564;2023-02-04T06:06:54;102609.47;;;0.96;96.56
23473;BME280;11909;52.516;13.564;2023-02-04T06:09:22;102604.72;;;0.98;96.28
23473;BME280;11909;52.516;13.564;2023-02-04T06:11:49;102614.19;;;0.94;96.41
23473;BME280;11909;52.516;13.564;2023-02-04T06:14:17;102621.78;;;0.90;97.01
23473;BME280;11909;52.516;13.564;2023-02-04T06:16:45;102624.69;;;0.89;96.75
23473;BME280;11909;52.516;13.564;2023-02-04T06:19:13;102629.91;;;0.90;96.96
23473;BME280;11909;52.516;13.564;2023-02-04T06:21:42;102628.75;;;0.84;96.88
23473;BME280;11909;52.516;13.564;2023-02-04T06:24:09;102637.69;;;0.85;97.18
23473;BME280;11909;52.516;13.564;2023-02-04T06:26:37;102640.91;;;0.89;96.93
23473;BME280;11909;52.516;13.564;2023-02-04T06:29:05;102643.78;;;0.79;96.53
23473;BME280;11909;52.516;13.564;2023-02-04T06:31:32;102647.50;;;0.69;97.33
23473;BME280;11909;52.516;13.564;2023-02-04T06:34:03;102655.25;;;0.73;97.38
23473;BME280;11909;52.516;13.564;2023-02-04T06:36:31;102655.59;;;0.69;97.34
23473;BME280;11909;52.516;13.564;2023-02-04T06:39:00;102663.69;;;0.69;97.45
23473;BME280;11909;52.516;13.564;2023-02-04T06:41:28;102668.75;;;0.64;97.92
23473;BME280;11909;52.516;13.564;2023-02-04T06:43:55;102671.09;;;0.67;97.74
23473;BME280;11909;52.516;13.564;2023-02-04T06:46:23;102676.84;;;0.64;97.81
23473;BME280;11909;52.516;13.564;2023-02-04T06:48:51;102676.34;;;0.61;98.26
23473;BME280;11909;52.516;13.564;2023-02-04T06:51:18;102684.28;;;0.62;98.20
23473;BME280;11909;52.516;13.564;2023-02-04T06:53:46;102680.91;;;0.60;98.06
23473;BME280;11909;52.516;13.564;2023-02-04T06:56:15;102687.81;;;0.54;98.46
23473;BME280;11909;52.516;13.564;2023-02-04T06:58:43;102687.31;;;0.59;97.81
23473;BME280;11909;52.516;13.564;2023-02-04T07:01:10;102685.63;;;0.58;98.46
23473;BME280;11909;52.516;13.564;2023-02-04T07:03:38;102682.91;;;0.58;98.81
23473;BME280;11909;52.516;13.564;2023-02-04T07:06:06;102691.72;;;0.60;98.54
23473;BME280;11909;52.516;13.564;2023-02-04T07:08:34;102694.75;;;0.57;98.27
23473;BME280;11909;52.516;13.564;2023-02-04T07:11:01;102701.69;;;0.60;98.51
23473;BME280;11909;52.516;13.564;2023-02-04T07:13:31;102693.72;;;0.58;98.63
23473;BME280;11909;52.516;13.564;2023-02-04T07:15:58;102696.59;;;0.56;98.66
23473;BME280;11909;52.516;13.564;2023-02-04T07:18:26;102693.22;;;0.54;98.88
23473;BME280;11909;52.516;13.564;2023-02-04T07:20:54;102694.75;;;0.57;98.71
23473;BME280;11909;52.516;13.564;2023-02-04T07:23:21;102703.84;;;0.56;98.74
23473;BME280;11909;52.516;13.564;2023-02-04T07:25:50;102701.84;;;0.58;98.97
23473;BME280;11909;52.516;13.564;2023-02-04T07:28:19;102707.44;;;0.65;99.29
23473;BME280;11909;52.516;13.564;2023-02-04T07:30:48;102714.53;;;0.66;98.80
23473;BME280;11909;52.516;13.564;2023-02-04T07:33:16;102718.56;;;0.62;98.54
23473;BME280;11909;52.516;13.564;2023-02-04T07:35:43;102718.72;;;0.60;99.57
23473;BME280;11909;52.516;13.564;2023-02-04T07:38:11;102718.91;;;0.67;99.24
23473;BME280;11909;52.516;13.564;2023-02-04T07:40:39;102722.44;;;0.59;99.23
23473;BME280;11909;52.516;13.564;2023-02-04T07:43:07;102732.78;;;0.72;99.40
23473;BME280;11909;52.516;13.564;2023-02-04T07:45:34;102735.28;;;0.65;99.05
23473;BME280;11909;52.516;13.564;2023-02-04T07:48:04;102736.50;;;0.71;99.47
23473;BME280;11909;52.516;13.564;2023-02-04T07:50:32;102747.81;;;0.75;99.27
23473;BME280;11909;52.516;13.564;2023-02-04T07:53:00;102749.84;;;0.73;99.70
23473;BME280;11909;52.516;13.564;2023-02-04T07:55:28;102759.59;;;0.65;100.00
23473;BME280;11909;52.516;13.564;2023-02-04T07:57:55;102763.16;;;0.66;100.00
23473;BME280;11909;52.516;13.564;2023-02-04T08:00:23;102768.25;;;0.77;100.00
23473;BME280;11909;52.516;13.564;2023-02-04T08:02:51;102789.72;;;0.79;99.73
23473;BME280;11909;52.516;13.564;2023-02-04T08:05:20;102797.66;;;0.80;99.52
23473;BME280;11909;52.516;13.564;2023-02-04T08:07:48;102800.53;;;0.79;99.92
23473;BME280;11909;52.516;13.564;2023-02-04T08:10:16;102797.19;;;0.85;100.00
23473;BME280;11909;52.516;13.564;2023-02-04T08:12:43;102801.41;;;0.88;100.00
23473;BME280;11909;52.516;13.564;2023-02-04T08:15:11;102802.63;;;1.02;99.83
23473;BME280;11909;52.516;13.564;2023-02-04T08:17:39;102795.72;;;1.07;99.66
23473;BME280;11909;52.516;13.564;2023-02-04T08:20:07;102808.38;;;1.07;99.00
23473;BME280;11909;52.516;13.564;2023-02-04T08:22:36;102805.69;;;1.07;98.87
23473;BME280;11909;52.516;13.564;2023-02-04T08:25:04;102809.94;;;1.18;99.15
23473;BME280;11909;52.516;13.564;2023-02-04T08:27:32;102808.38;;;1.15;98.20
23473;BME280;11909;52.516;13.564;2023-02-04T08:30:00;102819.41;;;1.22;98.53
23473;BME280;11909;52.516;13.564;2023-02-04T08:32:28;102818.91;;;1.26;98.49
23473;BME280;11909;52.516;13.564;2023-02-04T08:34:56;102822.63;;;1.25;97.83
23473;BME280;11909;52.516;13.564;2023-02-04T08:37:24;102824.66;;;1.32;97.84
23473;BME280;11909;52.516;13.564;2023-02-04T08:39:53;102830.75;;;1.34;97.73
23473;BME280;11909;52.516;13.564;2023-02-04T08:42:21;102837.34;;;1.48;97.21
23473;BME280;11909;52.516;13.564;2023-02-04T08:44:49;102839.41;;;1.54;95.85
23473;BME280;11909;52.516;13.564;2023-02-04T08:47:17;102844.97;;;1.52;95.83
23473;BME280;11909;52.516;13.564;2023-02-04T08:49:44;102840.75;;;1.66;95.37
23473;BME280;11909;52.516;13.564;2023-02-04T08:52:12;102846.00;;;1.76;94.52
23473;BME280;11909;52.516;13.564;2023-02-04T08:54:40;102854.97;;;1.60;93.83
23473;BME280;11909;52.516;13.564;2023-02-04T08:57:09;102858.53;;;1.69;93.98
23473;BME280;11909;52.516;13.564;2023-02-04T08:59:37;102853.94;;;1.69;93.99
23473;BME280;11909;52.516;13.564;2023-02-04T09:02:05;102848.19;;;1.89;93.06
23473;BME280;11909;52.516;13.564;2023-02-04T09:04:32;102859.69;;;1.91;92.42
23473;BME280;11909;52.516;13.564;2023-02-04T09:07:00;102865.28;;;1.81;92.81
23473;BME280;11909;52.516;13.564;2023-02-04T09:09:28;102868.19;;;1.96;93.06
23473;BME280;11909;52.516;13.564;2023-02-04T09:11:55;102877.13;;;2.05;91.98
23473;BME280;11909;52.516;13.564;2023-02-04T09:14:25;102881.53;;;2.14;91.54
23473;BME280;11909;52.516;13.564;2023-02-04T09:16:52;102888.78;;;2.31;90.89
23473;BME280;11909;52.516;13.564;2023-02-04T09:19:20;102891.81;;;2.36;90.50
23473;BME280;11909;52.516;13.564;2023-02-04T09:21:51;102900.63;;;2.38;89.37
23473;BME280;11909;52.516;13.564;2023-02-04T09:24:19;102905.19;;;2.54;88.98
23473;BME280;11909;52.516;13.564;2023-02-04T09:26:49;102914.78;;;2.65;87.65
23473;BME280;11909;52.516;13.564;2023-02-04T09:29:16;102925.31;;;2.68;87.54
23473;BME280;11909;52.516;13.564;2023-02-04T09:31:45;102923.28;;;2.70;87.37
23473;BME280;11909;52.516;13.564;2023-02-04T09:34:14;102933.56;;;2.75;86.78
23473;BME280;11909;52.516;13.564;2023-02-04T09:36:42;102936.63;;;2.80;85.89
23473;BME280;11909;52.516;13.564;2023-02-04T09:39:10;102940.84;;;2.91;86.26
23473;BME280;11909;52.516;13.564;2023-02-04T09:41:38;102948.59;;;3.02;85.81
23473;BME280;11909;52.516;13.564;2023-02-04T09:44:11;102957.91;;;3.08;83.86
23473;BME280;11909;52.516;13.564;2023-02-04T09:46:47;102954.16;;;3.09;84.25
23473;BME280;11909;52.516;13.564;2023-02-04T09:49:16;102956.81;;;3.25;84.29
23473;BME280;11909;52.516;13.564;2023-02-04T09:51:44;102952.84;;;3.36;83.88
23473;BME280;11909;52.516;13.564;2023-02-04T09:54:14;102954.63;;;3.52;83.66
23473;BME280;11909;52.516;13.564;2023-02-04T09:56:42;102962.50;;;3.70;83.29
23473;BME280;11909;52.516;13.564;2023-02-04T09:59:11;102966.84;;;3.80;81.03
23473;BME280;11909;52.516;13.564;2023-02-04T10:01:39;102975.06;;;3.71;80.60
23473;BME280;11909;52.516;13.564;2023-02-04T10:04:11;102979.06;;;3.52;80.02
23473;BME280;11909;52.516;13.564;2023-02-04T10:06:40;102973.88;;;3.66;80.88
23473;BME280;11909;52.516;13.564;2023-02-04T10:09:09;102963.00;;;3.74;80.28
23473;BME280;11909;52.516;13.564;2023-02-04T10:11:38;102980.75;;;3.85;79.12
23473;BME280;11909;52.516;13.564;2023-02-04T10:14:12;102979.94;;;3.76;77.25
23473;BME280;11909;52.516;13.564;2023-02-04T10:16:42;102995.59;;;3.74;77.40
23473;BME280;11909;52.516;13.564;2023-02-04T10:19:14;102990.38;;;3.64;78.04
23473;BME280;11909;52.516;13.564;2023-02-04T10:21:43;102993.63;;;3.59;77.76
23473;BME280;11909;52.516;13.564;2023-02-04T10:24:14;102995.97;;;3.63;78.18
23473;BME280;11909;52.516;13.564;2023-02-04T10:26:42;102984.28;;;3.62;78.02
23473;BME280;11909;52.516;13.564;2023-02-04T10:29:15;102988.84;;;3.62;78.73
23473;BME280;11909;52.516;13.564;2023-02-04T10:31:45;102990.53;;;3.63;78.68
23473;BME280;11909;52.516;13.564;2023-02-04T10:34:16;103002.72;;;3.75;76.02
23473;BME280;11909;52.516;13.564;2023-02-04T10:36:46;103009.75;;;3.61;77.01
23473;BME280;11909;52.516;13.564;2023-02-04T10:39:16;103010.47;;;3.47;77.77
23473;BME280;11909;52.516;13.564;2023-02-04T10:41:45;103008.84;;;3.29;78.44
23473;BME280;11909;52.516;13.564;2023-02-04T10:44:16;103012.13;;;3.24;78.00
23473;BME280;11909;52.516;13.564;2023-02-04T10:46:44;103006.13;;;3.29;77.84
23473;BME280;11909;52.516;13.564;2023-02-04T10:49:21;103008.69;;;3.22;78.14
23473;BME280;11909;52.516;13.564;2023-02-04T10:51:50;103001.47;;;3.14;78.76
23473;BME280;11909;52.516;13.564;2023-02-04T10:54:20;103013.47;;;3.20;78.08
23473;BME280;11909;52.516;13.564;2023-02-04T10:57:10;103000.72;;;3.29;77.91
23473;BME280;11909;52.516;13.564;2023-02-04T10:59:43;103009.16;;;3.34;76.44
23473;BME280;11909;52.516;13.564;2023-02-04T11:02:34;103011.28;;;3.55;77.03
23473;BME280;11909;52.516;13.564;2023-02-04T11:05:10;103012.19;;;3.79;75.47
23473;BME280;11909;52.516;13.564;2023-02-04T11:07:38;103011.88;;;3.97;75.20
23473;BME280;11909;52.516;13.564;2023-02-04T11:10:12;103009.97;;;4.06;74.68
23473;BME280;11909;52.516;13.564;2023-02-04T11:12:42;103015.25;;;4.08;74.15
23473;BME280;11909;52.516;13.564;2023-02-04T11:18:04;103034.00;;;3.94;70.52
23473;BME280;11909;52.516;13.564;2023-02-04T11:20:34;103037.81;;;3.77;71.49
23473;BME280;11909;52.516;13.564;2023-02-04T11:23:30;103036.31;;;3.74;71.73
23473;BME280;11909;52.516;13.564;2023-02-04T11:26:06;103038.69;;;3.69;71.88
23473;BME280;11909;52.516;13.564;2023-02-04T11:29:06;103039.56;;;3.69;71.98
23473;BME280;11909;52.516;13.564;2023-02-04T11:31:43;103050.13;;;3.64;71.79
23473;BME280;11909;52.516;13.564;2023-02-04T11:34:28;103047.09;;;3.59;72.95
23473;BME280;11909;52.516;13.564;2023-02-04T11:37:14;103058.06;;;3.66;70.85
23473;BME280;11909;52.516;13.564;2023-02-04T11:39:43;103060.44;;;3.69;70.35
23473;BME280;11909;52.516;13.564;2023-02-04T11:42:20;103057.03;;;3.67;70.56
23473;BME280;11909;52.516;13.564;2023-02-04T11:44:50;103067.28;;;3.56;70.50
23473;BME280;11909;52.516;13.564;2023-02-04T11:47:19;103058.00;;;3.42;71.21
23473;BME280;11909;52.516;13.564;2023-02-04T11:49:53;103061.25;;;3.38;72.40
23473;BME280;11909;52.516;13.564;2023-02-04T11:52:22;103059.50;;;3.45;73.27
23473;BME280;11909;52.516;13.564;2023-02-04T11:54:55;103066.47;;;3.48;72.36
23473;BME280;11909;52.516;13.564;2023-02-04T11:57:23;103066.31;;;3.49;72.00
23473;BME280;11909;52.516;13.564;2023-02-04T11:59:51;103072.06;;;3.54;71.48
23473;BME280;11909;52.516;13.564;2023-02-04T12:02:20;103075.78;;;3.53;69.71
23473;BME280;11909;52.516;13.564;2023-02-04T12:04:53;103072.78;;;3.40;70.44
23473;BME280;11909;52.516;13.564;2023-02-04T12:07:26;103076.16;;;3.42;70.75
23473;BME280;11909;52.516;13.564;2023-02-04T12:09:55;103066.00;;;3.36;71.89
23473;BME280;11909;52.516;13.564;2023-02-04T12:12:26;103065.53;;;3.24;72.10
23473;BME280;11909;52.516;13.564;2023-02-04T12:15:07;103064.38;;;3.10;73.07
23473;BME280;11909;52.516;13.564;2023-02-04T12:17:43;103066.91;;;3.11;73.17
23473;BME280;11909;52.516;13.564;2023-02-04T12:20:11;103068.75;;;3.27;71.39
23473;BME280;11909;52.516;13.564;2023-02-04T12:22:40;103070.31;;;3.13;71.34
23473;BME280;11909;52.516;13.564;2023-02-04T12:25:08;103077.59;;;3.13;70.36
23473;BME280;11909;52.516;13.564;2023-02-04T12:27:42;103074.91;;;3.05;71.12
23473;BME280;11909;52.516;13.564;2023-02-04T12:30:10;103087.59;;;3.04;70.24
23473;BME280;11909;52.516;13.564;2023-02-04T12:32:39;103104.41;;;3.08;68.36
23473;BME280;11909;52.516;13.564;2023-02-04T12:35:07;103104.41;;;2.99;68.32
23473;BME280;11909;52.516;13.564;2023-02-04T12:37:34;103104.25;;;3.01;68.82
23473;BME280;11909;52.516;13.564;2023-02-04T12:40:04;103110.53;;;3.01;69.81
23473;BME280;11909;52.516;13.564;2023-02-04T12:42:32;103105.44;;;3.07;69.35
23473;BME280;11909;52.516;13.564;2023-02-04T12:45:00;103108.97;;;3.15;69.07
23473;BME280;11909;52.516;13.564;2023-02-04T12:47:27;103108.31;;;3.13;68.38
23473;BME280;11909;52.516;13.564;2023-02-04T12:49:55;103101.13;;;3.29;68.60
23473;BME280;11909;52.516;13.564;2023-02-04T12:52:23;103101.25;;;3.44;68.49
23473;BME280;11909;52.516;13.564;2023-02-04T12:54:50;103094.13;;;3.51;67.16
23473;BME280;11909;52.516;13.564;2023-02-04T12:57:19;103095.72;;;3.69;67.24
23473;BME280;11909;52.516;13.564;2023-02-04T12:59:47;103101.66;;;3.81;66.41
23473;BME280;11909;52.516;13.564;2023-02-04T13:02:15;103113.00;;;4.16;64.00